Terminal Aerodrome Forecast
Issued by NWS Charleston, SC

Home | Current Version | Previous Version | Text Only | Print | Product List | Glossary On
Versions: 1 2 3 4 5 6 7 8 9 10 11 12 13 14 15 16 17 18 19 20 21 22 23 24 25 26 27 28 29 30 31 32 33
000
FTUS42 KCHS 302339
TAFSAV
TAF
KSAV 302339Z 3100/3124 09008KT 6SM -RA BR SCT010 BKN015
     FM310300 08008KT P6SM VCSH SCT015 BKN050
     FM310800 VRB04KT 5SM BR SCT006 BKN015
     FM311500 35006KT P6SM SCT015 BKN035
     FM312100 14008KT P6SM FEW020 BKN060=

USA.gov is the U.S. government's official web portal to all federal, state and local government web resources and services.